Time;durP1;ratioP1;P1;durP2;ratioP2;P2;SDS_P1;SDS_P2;PMS_P1;PMS_P2;Temp;Humidity;BMP_temperature;BMP_pressure;BME280_temperature;BME280_humidity;BME280_pressure;Samples;Min_cycle;Max_cycle;Signal;HPM_P1;HPM_P2
2021/10/25 00:00:46;;;;;;;44.80;22.50;;;;;;;1.72;77.14;99897.91;236186;1197;24138;-74
2021/10/25 00:05:49;;;;;;;44.60;22.30;;;;;;;1.70;77.13;99899.88;236197;1193;22446;-79
2021/10/25 00:11:05;;;;;;;50.50;24.30;;;;;;;1.66;76.98;99899.03;236082;1193;24045;-76
2021/10/25 00:16:09;;;;;;;47.80;24.00;;;;;;;1.62;77.13;99891.41;235985;1198;25183;-75
2021/10/25 00:21:15;;;;;;;49.30;25.30;;;;;;;1.62;77.36;99892.23;235946;1197;22431;-77
2021/10/25 00:26:37;;;;;;;53.10;24.60;;;;;;;1.58;77.41;99891.62;236040;1193;23033;-75
2021/10/25 00:31:40;;;;;;;52.20;23.90;;;;;;;1.48;76.97;99890.88;236030;1197;22460;-81
2021/10/25 00:36:50;;;;;;;48.60;25.30;;;;;;;1.38;76.84;99895.49;235928;1190;25186;-75
2021/10/25 00:42:13;;;;;;;51.70;24.60;;;;;;;1.31;77.25;99895.60;236084;1196;22490;-77
2021/10/25 00:47:18;;;;;;;52.40;25.00;;;;;;;1.25;77.24;99891.11;235753;1198;22520;-78
2021/10/25 00:52:22;;;;;;;47.40;24.20;;;;;;;1.15;77.06;99881.71;236157;1198;22454;-77
2021/10/25 00:57:25;;;;;;;50.50;24.50;;;;;;;1.06;77.07;99880.99;235970;1198;22449;-75
2021/10/25 01:02:28;;;;;;;48.00;25.00;;;;;;;0.96;77.11;99878.23;235990;1198;22413;-76
2021/10/25 01:07:31;;;;;;;49.60;24.10;;;;;;;0.92;77.70;99874.45;236024;1198;22470;-76
2021/10/25 01:12:50;;;;;;;45.00;22.50;;;;;;;0.94;77.79;99865.09;235860;1198;22420;-75
2021/10/25 01:18:14;;;;;;;46.90;23.00;;;;;;;0.96;78.00;99860.38;236210;1182;25157;-76
2021/10/25 01:23:19;;;;;;;52.70;24.40;;;;;;;0.96;78.11;99859.80;236199;1193;24604;-74
2021/10/25 01:28:23;;;;;;;47.20;24.40;;;;;;;0.95;78.35;99858.42;236096;1197;22499;-76
2021/10/25 01:33:30;;;;;;;52.00;25.00;;;;;;;0.95;78.28;99850.75;236252;1197;22854;-74
2021/10/25 01:38:46;;;;;;;47.20;25.40;;;;;;;0.95;78.51;99848.17;236165;1197;24082;-74
2021/10/25 01:43:50;;;;;;;55.80;27.30;;;;;;;0.98;78.64;99845.33;236026;1197;24229;-76
2021/10/25 01:48:54;;;;;;;52.00;27.60;;;;;;;1.00;78.73;99847.07;236342;1197;24114;-74
2021/10/25 01:53:59;;;;;;;55.20;27.50;;;;;;;0.97;78.71;99844.47;236267;1197;22419;-76
2021/10/25 01:59:10;;;;;;;55.70;29.20;;;;;;;0.93;78.32;99833.55;236084;1198;22580;-76
2021/10/25 02:04:13;;;;;;;54.70;27.60;;;;;;;0.93;78.61;99827.66;236192;1198;22439;-76
2021/10/25 02:09:16;;;;;;;57.00;28.50;;;;;;;0.96;78.75;99823.00;236171;1197;24066;-75
2021/10/25 02:14:20;;;;;;;66.70;29.40;;;;;;;0.95;78.92;99819.39;236262;1197;24196;-74
2021/10/25 02:19:24;;;;;;;63.00;30.80;;;;;;;0.91;78.61;99811.02;236013;1197;24111;-80
2021/10/25 02:24:59;;;;;;;59.10;28.80;;;;;;;0.83;78.45;99806.97;235904;1190;25538;-76
2021/10/25 02:30:08;;;;;;;57.40;27.90;;;;;;;0.80;78.70;99806.48;236106;1197;24028;-74
2021/10/25 02:35:12;;;;;;;;;;;;;;;0.81;78.74;99801.80;236051;1197;22928;-74
2021/10/25 02:40:17;;;;;;;57.90;27.80;;;;;;;0.80;78.97;99803.56;235988;1197;22452;-76
2021/10/25 02:45:37;;;;;;;53.50;26.40;;;;;;;0.75;78.78;99793.64;236097;1198;24663;-77
2021/10/25 02:50:41;;;;;;;59.70;28.90;;;;;;;0.64;78.49;99795.30;235992;1197;25428;-77
2021/10/25 02:55:43;;;;;;;53.20;25.90;;;;;;;0.53;78.20;99794.46;235939;1197;25045;-75
2021/10/25 03:00:46;;;;;;;54.10;26.60;;;;;;;0.43;78.09;99782.82;235817;1198;22605;-76
2021/10/25 03:05:49;;;;;;;55.50;26.50;;;;;;;0.36;78.56;99786.69;235878;1197;24126;-76
2021/10/25 03:10:52;;;;;;;51.00;27.60;;;;;;;0.30;78.53;99780.17;235897;1190;24273;-76
2021/10/25 03:15:57;;;;;;;55.00;27.90;;;;;;;0.26;78.83;99771.64;236262;1190;25081;-76
2021/10/25 03:21:00;;;;;;;62.20;31.60;;;;;;;0.21;78.79;99764.52;235973;1190;25157;-76
2021/10/25 03:26:03;;;;;;;63.10;31.50;;;;;;;0.21;78.92;99762.82;236108;1197;24171;-75
2021/10/25 03:31:07;;;;;;;52.00;26.70;;;;;;;0.20;78.94;99761.48;236102;1190;22420;-76
2021/10/25 03:36:14;;;;;;;49.30;26.80;;;;;;;0.13;79.03;99759.02;236154;1190;23137;-76
2021/10/25 03:41:29;;;;;;;56.50;29.60;;;;;;;0.03;78.95;99757.66;236047;1197;25462;-77
2021/10/25 03:46:39;;;;;;;53.40;28.70;;;;;;;-0.05;79.05;99754.14;236067;1197;24418;-76
2021/10/25 03:51:53;;;;;;;47.60;27.20;;;;;;;-0.10;79.10;99746.66;236170;1190;23733;-76
2021/10/25 04:29:32;;;;;;;40.50;23.40;;;;;;;-0.38;79.52;99697.98;236263;1197;24599;-75
2021/10/25 04:34:51;;;;;;;46.90;25.20;;;;;;;-0.45;79.49;99693.47;236289;1190;24018;-75
2021/10/25 04:40:24;;;;;;;47.80;26.30;;;;;;;-0.54;79.44;99692.25;236027;1197;24097;-77
2021/10/25 04:45:26;;;;;;;48.30;28.20;;;;;;;-0.59;79.51;99699.08;236134;1197;24130;-78
2021/10/25 04:50:35;;;;;;;50.60;28.60;;;;;;;-0.60;79.93;99693.38;236153;1190;24056;-76
2021/10/25 04:55:46;;;;;;;58.60;29.50;;;;;;;-0.59;79.80;99692.90;236146;1190;24069;-77
2021/10/25 05:01:02;;;;;;;52.80;27.90;;;;;;;-0.56;80.32;99699.92;236009;1197;22486;-77
2021/10/25 05:06:15;;;;;;;54.60;29.50;;;;;;;-0.55;80.30;99697.29;236399;1198;24044;-77
2021/10/25 05:11:21;;;;;;;54.30;28.90;;;;;;;-0.57;80.01;99695.75;236362;1190;24698;-74
2021/10/25 05:16:25;;;;;;;54.80;29.60;;;;;;;-0.59;80.21;99697.64;236323;1197;24091;-76
2021/10/25 05:21:38;;;;;;;53.10;27.90;;;;;;;-0.53;80.40;99690.79;236180;1197;24599;-76
2021/10/25 05:26:42;;;;;;;53.90;28.00;;;;;;;-0.47;80.65;99690.38;236141;1198;22487;-76
2021/10/25 05:31:45;;;;;;;55.70;28.50;;;;;;;-0.40;80.96;99686.37;236091;1198;24152;-76
2021/10/25 05:36:48;;;;;;;52.20;28.20;;;;;;;-0.33;81.00;99685.63;236005;1197;24124;-77
2021/10/25 05:41:52;;;;;;;55.90;28.90;;;;;;;-0.31;80.58;99686.70;235934;1190;24142;-76
2021/10/25 05:46:55;;;;;;;46.00;24.20;;;;;;;-0.29;80.49;99690.41;236457;1198;27153;-75
2021/10/25 05:51:59;;;;;;;52.40;27.50;;;;;;;-0.28;80.22;99695.66;236618;1197;22427;-77
2021/10/25 05:57:05;;;;;;;45.50;25.20;;;;;;;-0.27;80.17;99695.44;236897;1190;24156;-76
2021/10/25 06:02:23;;;;;;;60.10;32.50;;;;;;;-0.29;79.73;99697.98;237386;1197;22424;-74
2021/10/25 06:07:39;;;;;;;56.40;30.70;;;;;;;-0.27;80.01;99696.09;236969;1192;22526;-77
2021/10/25 06:12:46;;;;;;;52.70;29.50;;;;;;;-0.17;80.03;99697.98;237549;1190;22508;-75
2021/10/25 06:18:12;;;;;;;50.40;27.80;;;;;;;-0.06;79.97;99701.58;236674;1190;24256;-75
2021/10/25 06:23:16;;;;;;;50.30;29.00;;;;;;;0.03;80.10;99705.30;236713;1190;25064;-76
2021/10/25 06:28:25;;;;;;;52.60;28.60;;;;;;;0.16;80.06;99709.13;236434;1189;23984;-75
2021/10/25 06:33:42;;;;;;;55.80;28.30;;;;;;;0.36;80.25;99711.58;237192;1191;24978;-75
2021/10/25 06:39:14;;;;;;;51.10;28.40;;;;;;;0.59;80.38;99708.63;236522;1191;24085;-74
2021/10/25 06:44:21;;;;;;;58.60;30.00;;;;;;;0.96;80.96;99717.86;236373;1193;24190;-73
2021/10/25 06:49:26;;;;;;;66.20;35.40;;;;;;;1.27;80.41;99715.14;236510;1190;22448;-76
2021/10/25 06:54:28;;;;;;;65.20;34.90;;;;;;;1.53;80.08;99719.02;236331;1190;22415;-73
2021/10/25 06:59:32;;;;;;;55.00;32.20;;;;;;;1.74;79.77;99718.01;236649;1190;22442;-74
2021/10/25 07:04:36;;;;;;;56.50;31.60;;;;;;;1.90;79.77;99719.75;237497;1190;24184;-76
2021/10/25 07:09:40;;;;;;;57.20;33.60;;;;;;;2.05;79.75;99720.92;236237;1193;24600;-77
2021/10/25 07:14:44;;;;;;;62.30;33.80;;;;;;;2.20;79.55;99709.83;236983;1198;24069;-76
2021/10/25 08:08:47;;;;;;;31.70;15.70;;;;;;;5.13;78.22;99656.84;236530;1190;22492;-73
2021/10/25 08:13:50;;;;;;;30.50;15.70;;;;;;;5.43;77.32;99660.12;236333;1190;22526;-72
2021/10/25 08:19:06;;;;;;;29.70;15.20;;;;;;;5.73;77.02;99654.06;236588;1190;24013;-71
2021/10/25 08:24:33;;;;;;;28.40;14.80;;;;;;;6.05;76.32;99647.80;236049;1190;24038;-72
2021/10/25 08:29:46;;;;;;;27.90;14.70;;;;;;;6.32;76.27;99649.99;235966;1182;22627;-73
2021/10/25 08:35:01;;;;;;;28.80;16.00;;;;;;;6.55;74.71;99648.54;236546;1190;25016;-72
2021/10/25 08:40:24;;;;;;;28.60;14.20;;;;;;;7.30;77.04;99640.59;236490;1198;22530;-73
2021/10/25 08:45:31;;;;;;;25.10;13.60;;;;;;;8.96;75.88;99631.95;236462;1197;23194;-74
2021/10/25 08:50:35;;;;;;;21.30;12.50;;;;;;;9.04;71.32;99631.10;236875;1190;22473;-74
2021/10/25 08:55:53;;;;;;;17.70;9.10;;;;;;;8.94;70.58;99634.50;236156;1195;25158;-72
2021/10/25 09:01:32;;;;;;;12.90;7.00;;;;;;;8.81;67.32;99628.52;236429;1197;24079;-73
2021/10/25 09:06:50;;;;;;;14.80;6.80;;;;;;;8.62;65.74;99629.66;236246;1197;24548;-74
2021/10/25 09:12:08;;;;;;;10.40;5.30;;;;;;;8.60;66.03;99621.69;235829;1174;25130;-73
2021/10/25 09:17:19;;;;;;;11.80;5.70;;;;;;;8.67;65.32;99616.83;236587;1190;22451;-73
2021/10/25 09:22:48;;;;;;;8.70;4.50;;;;;;;8.82;65.06;99612.63;236690;1190;24022;-73
2021/10/25 09:27:52;;;;;;;9.70;4.10;;;;;;;8.96;63.16;99610.15;236560;1190;24003;-74
2021/10/25 09:33:18;;;;;;;7.20;3.60;;;;;;;9.08;62.50;99608.52;236853;1190;26175;-73
2021/10/25 09:39:04;;;;;;;7.80;3.60;;;;;;;9.22;62.26;99601.02;236682;1190;25113;-73
2021/10/25 09:49:57;;;;;;;9.70;4.50;;;;;;;9.56;61.17;99587.48;236715;1190;24274;-75
2021/10/25 09:55:06;;;;;;;8.40;4.00;;;;;;;9.70;61.01;99590.16;238688;1190;25010;-75
2021/10/25 10:00:13;;;;;;;5.80;2.90;;;;;;;9.85;58.55;99589.19;238623;1190;27187;-75
2021/10/25 10:05:17;;;;;;;5.30;3.20;;;;;;;9.98;56.35;99587.45;238628;1190;25241;-70
2021/10/25 10:10:26;;;;;;;7.60;3.50;;;;;;;10.09;56.38;99588.61;238257;1197;22419;-70
2021/10/25 10:15:53;;;;;;;10.00;3.80;;;;;;;10.20;55.74;99585.09;236920;1190;22426;-70
2021/10/25 10:21:01;;;;;;;7.50;4.50;;;;;;;10.36;56.16;99587.16;238792;1190;24084;-71
2021/10/25 10:26:13;;;;;;;6.70;4.00;;;;;;;10.52;55.62;99578.07;236584;1198;24085;-72
2021/10/25 10:31:21;;;;;;;8.50;4.50;;;;;;;10.65;53.61;99573.63;236247;1197;22456;-70
2021/10/25 10:36:34;;;;;;;9.40;4.80;;;;;;;10.82;54.00;99567.60;236360;1197;22450;-72
2021/10/25 10:41:50;;;;;;;10.10;4.80;;;;;;;10.93;53.98;99566.35;235902;1198;24091;-72
2021/10/25 10:47:09;;;;;;;7.70;4.00;;;;;;;11.08;54.64;99559.56;236293;1195;22509;-72
2021/10/25 10:52:42;;;;;;;7.60;4.00;;;;;;;11.28;53.21;99559.17;237379;1197;25112;-71
2021/10/25 11:03:02;;;;;;;7.50;3.80;;;;;;;11.64;52.10;99542.82;236934;1197;22441;-72
2021/10/25 11:08:12;;;;;;;9.40;4.10;;;;;;;11.82;52.79;99537.03;236477;1197;23985;-71
2021/10/25 11:13:20;;;;;;;7.10;3.60;;;;;;;11.95;52.01;99535.30;236392;1197;24030;-72
2021/10/25 11:18:31;;;;;;;8.90;4.00;;;;;;;12.05;51.27;99528.38;236550;1197;25098;-72
2021/10/25 11:23:44;;;;;;;9.20;3.80;;;;;;;12.13;50.23;99522.38;237452;1197;22553;-71
2021/10/25 11:29:14;;;;;;;9.10;4.70;;;;;;;12.23;49.98;99523.00;236613;1192;22422;-72
2021/10/25 11:34:19;;;;;;;;;;;;;;;12.37;50.11;99519.98;236067;1190;23127;-71
2021/10/25 11:39:45;;;;;;;6.50;3.70;;;;;;;12.48;50.66;99510.58;237807;1190;24015;-72
2021/10/25 11:44:57;;;;;;;8.10;4.00;;;;;;;12.65;50.05;99507.79;235939;1197;24000;-71
2021/10/25 11:50:03;;;;;;;10.20;3.80;;;;;;;12.77;49.90;99501.71;235941;1197;22440;-71
2021/10/25 11:55:11;;;;;;;9.90;4.20;;;;;;;12.86;50.10;99495.75;236008;1197;22549;-73
2021/10/25 12:00:17;;;;;;;8.70;4.50;;;;;;;12.95;48.72;99487.88;236122;1197;22436;-74
2021/10/25 12:05:24;;;;;;;9.10;3.50;;;;;;;13.05;47.92;99484.67;236061;1197;24064;-73
2021/10/25 12:10:28;;;;;;;9.10;4.50;;;;;;;13.10;46.92;99476.00;235903;1190;24075;-73
2021/10/25 12:15:35;;;;;;;8.60;4.20;;;;;;;13.16;47.26;99471.30;236033;1197;22488;-73
2021/10/25 12:20:40;;;;;;;7.60;3.60;;;;;;;13.24;48.29;99465.45;236866;1190;24039;-73
2021/10/25 12:25:59;;;;;;;7.10;3.70;;;;;;;13.29;48.28;99458.65;236196;1193;25083;-70
2021/10/25 12:31:07;;;;;;;6.80;3.10;;;;;;;13.32;46.68;99457.44;236038;1198;22450;-73
2021/10/25 12:36:15;;;;;;;8.40;3.40;;;;;;;13.35;47.47;99455.52;236305;1193;22451;-71
2021/10/25 12:41:17;;;;;;;6.80;4.00;;;;;;;13.42;47.65;99439.09;236171;1190;24022;-72
2021/10/25 12:46:24;;;;;;;6.20;3.20;;;;;;;13.44;47.58;99432.64;236086;1198;22438;-73
2021/10/25 12:51:47;;;;;;;7.00;3.00;;;;;;;13.48;47.14;99429.23;236100;1197;24047;-73
2021/10/25 12:57:25;;;;;;;35.80;23.30;;;;;;;13.50;46.58;99422.86;236068;1197;26247;-74
2021/10/25 13:02:31;;;;;;;9.10;4.30;;;;;;;13.56;46.49;99412.79;236401;1190;25176;-72
2021/10/25 13:07:35;;;;;;;6.80;4.30;;;;;;;13.57;47.36;99407.16;236320;1190;24051;-72
2021/10/25 13:12:39;;;;;;;5.00;2.80;;;;;;;13.59;47.44;99402.19;236167;1190;24085;-74
2021/10/25 13:17:42;;;;;;;5.70;3.30;;;;;;;13.59;46.99;99390.02;236064;1197;24081;-74
2021/10/25 13:22:45;;;;;;;7.90;3.00;;;;;;;13.56;47.07;99381.82;236177;1198;22442;-73
2021/10/25 13:27:49;;;;;;;5.10;3.10;;;;;;;13.55;46.60;99375.86;236081;1197;25072;-74
2021/10/25 13:32:54;;;;;;;6.30;2.90;;;;;;;13.52;45.45;99372.89;236195;1197;25158;-72
2021/10/25 13:37:57;;;;;;;7.20;3.10;;;;;;;13.49;43.73;99368.36;236311;1194;22433;-74
2021/10/25 13:43:03;;;;;;;3.70;2.60;;;;;;;13.45;44.02;99364.11;235737;1197;24026;-73
2021/10/25 13:48:06;;;;;;;4.70;2.80;;;;;;;13.41;44.73;99359.98;236242;1198;22468;-75
2021/10/25 13:53:11;;;;;;;5.60;3.40;;;;;;;13.35;44.38;99362.95;236131;1190;24091;-72
2021/10/25 13:58:16;;;;;;;7.50;4.30;;;;;;;13.27;44.62;99360.11;236877;1197;22778;-75
2021/10/25 14:03:19;;;;;;;7.40;3.50;;;;;;;13.18;44.65;99355.60;239306;1197;26298;-73
2021/10/25 14:08:22;;;;;;;6.60;3.40;;;;;;;13.10;44.47;99352.59;239933;1197;24062;-75
2021/10/25 14:13:39;;;;;;;8.60;3.50;;;;;;;13.03;44.77;99348.33;236063;1198;22403;-74
2021/10/25 14:18:51;;;;;;;5.70;2.80;;;;;;;12.93;44.85;99346.10;236258;1198;26389;-72
2021/10/25 14:24:13;;;;;;;7.20;3.20;;;;;;;12.78;45.47;99336.50;236132;1190;25212;-74
2021/10/25 14:29:18;;;;;;;6.70;3.20;;;;;;;12.63;45.45;99333.15;236029;1198;22416;-75
2021/10/25 14:34:21;;;;;;;7.90;3.00;;;;;;;12.47;45.75;99332.81;236079;1198;24268;-74
2021/10/25 14:39:33;;;;;;;7.20;3.10;;;;;;;12.34;46.00;99332.95;235860;1198;22460;-75
2021/10/25 14:55:08;;;;;;;6.20;3.40;;;;;;;11.79;46.58;99318.77;235868;1198;24174;-72
2021/10/25 15:00:11;;;;;;;6.70;3.50;;;;;;;11.60;47.24;99316.63;235446;1198;26258;-75
2021/10/25 15:05:16;;;;;;;8.30;3.80;;;;;;;11.38;47.75;99314.17;235777;1193;22440;-74
2021/10/25 15:10:19;;;;;;;4.30;2.90;;;;;;;11.13;48.18;99315.59;235833;1198;22435;-74
2021/10/25 15:15:22;;;;;;;6.10;3.50;;;;;;;10.86;48.36;99313.82;236034;1198;24191;-75
2021/10/25 15:20:25;;;;;;;5.80;3.40;;;;;;;10.61;48.57;99316.59;236159;1197;24150;-73
2021/10/25 15:25:35;;;;;;;5.30;3.00;;;;;;;10.34;48.86;99324.33;235959;1197;25104;-74
2021/10/25 15:30:37;;;;;;;6.30;3.00;;;;;;;10.06;49.17;99326.75;235891;1197;24102;-74
2021/10/25 15:35:56;;;;;;;8.20;3.50;;;;;;;9.78;49.59;99327.92;236103;1182;24753;-73
2021/10/25 15:41:18;;;;;;;8.50;3.90;;;;;;;9.46;49.79;99324.08;235966;1190;24671;-73
2021/10/25 15:46:21;;;;;;;12.20;4.30;;;;;;;9.18;50.19;99322.70;235925;1197;24110;-73
2021/10/25 15:51:24;;;;;;;10.40;4.50;;;;;;;8.92;50.73;99322.61;236226;1175;25851;-73
2021/10/25 15:56:27;;;;;;;14.00;5.70;;;;;;;8.68;50.82;99321.80;236143;1197;24076;-74
2021/10/25 16:01:29;;;;;;;10.60;6.20;;;;;;;8.45;51.20;99314.95;235881;1190;22431;-74
2021/10/25 16:06:40;;;;;;;10.00;5.30;;;;;;;8.24;51.46;99309.26;236145;1177;24184;-73
2021/10/25 16:11:59;;;;;;;10.40;5.40;;;;;;;8.08;51.64;99310.72;235626;1193;26149;-74
2021/10/25 16:17:03;;;;;;;13.00;5.70;;;;;;;7.98;51.97;99315.83;236038;1190;25279;-72
2021/10/25 16:22:06;;;;;;;14.70;6.60;;;;;;;7.91;51.95;99312.73;236029;1197;22494;-75
2021/10/25 16:27:09;;;;;;;14.30;6.30;;;;;;;7.80;52.04;99316.02;235861;1198;22451;-75
2021/10/25 16:32:12;;;;;;;14.40;7.50;;;;;;;7.72;52.07;99320.34;235776;1182;25196;-75
2021/10/25 16:37:15;;;;;;;16.90;8.70;;;;;;;7.63;52.22;99319.70;235815;1197;22503;-74
2021/10/25 16:42:18;;;;;;;16.30;8.30;;;;;;;7.53;52.29;99318.71;236124;1190;24085;-74
2021/10/25 16:47:22;;;;;;;15.20;8.00;;;;;;;7.41;52.14;99316.27;236020;1197;24592;-75
2021/10/25 16:52:35;;;;;;;15.30;7.40;;;;;;;7.30;52.32;99320.66;236134;1197;22656;-76
2021/10/25 17:13:33;;;;;;;14.40;7.60;;;;;;;6.96;52.56;99325.17;235801;1197;24050;-75
2021/10/25 17:18:37;;;;;;;17.40;9.50;;;;;;;6.84;52.71;99327.77;235968;1197;22475;-75
2021/10/25 17:23:40;;;;;;;25.80;11.20;;;;;;;6.74;52.75;99332.46;235982;1198;22437;-76
2021/10/25 17:28:43;;;;;;;32.50;17.30;;;;;;;6.62;53.11;99330.98;235898;1198;22474;-74
2021/10/25 17:33:45;;;;;;;40.60;22.10;;;;;;;6.48;53.88;99329.33;235819;1190;24053;-75
2021/10/25 17:38:48;;;;;;;34.20;18.00;;;;;;;6.36;54.05;99331.04;235806;1197;24194;-75
2021/10/25 17:43:52;;;;;;;38.10;17.30;;;;;;;6.33;54.41;99326.65;235933;1197;24011;-74
2021/10/25 17:48:56;;;;;;;34.30;16.00;;;;;;;6.45;54.27;99323.92;235890;1190;24106;-75
2021/10/25 17:53:59;;;;;;;31.30;14.90;;;;;;;6.58;54.08;99325.13;236070;1197;25222;-75
2021/10/25 17:59:03;;;;;;;34.40;16.90;;;;;;;6.69;53.84;99329.31;236276;1184;24034;-76
2021/10/25 18:04:06;;;;;;;36.40;18.20;;;;;;;6.71;53.67;99326.72;236064;1198;22451;-75
2021/10/25 18:09:08;;;;;;;33.20;16.40;;;;;;;6.66;53.51;99322.45;235989;1197;22546;-75
2021/10/25 18:14:11;;;;;;;36.20;16.30;;;;;;;6.55;53.46;99318.60;236066;1197;24044;-73
2021/10/25 18:19:15;;;;;;;33.10;16.00;;;;;;;6.46;53.62;99316.33;235943;1197;22550;-74
2021/10/25 18:24:18;;;;;;;32.80;16.20;;;;;;;6.43;53.74;99319.27;236032;1197;22987;-76
2021/10/25 18:29:20;;;;;;;28.70;14.70;;;;;;;6.42;53.48;99318.30;235940;1197;22467;-74
2021/10/25 18:34:23;;;;;;;29.60;14.00;;;;;;;6.45;53.87;99319.17;236044;1197;24155;-75
2021/10/25 18:39:26;;;;;;;32.10;15.30;;;;;;;6.46;53.68;99315.26;235962;1198;24081;-74
2021/10/25 18:44:29;;;;;;;33.20;14.30;;;;;;;6.43;53.95;99311.33;235976;1190;25194;-74
2021/10/25 18:49:36;;;;;;;28.90;14.10;;;;;;;6.28;53.87;99305.88;235872;1190;24138;-75
2021/10/25 18:54:39;;;;;;;31.30;15.80;;;;;;;6.09;54.42;99300.46;235773;1190;22668;-74
2021/10/25 18:59:54;;;;;;;35.60;16.20;;;;;;;5.91;54.49;99307.16;235839;1193;24065;-73
2021/10/25 19:05:09;;;;;;;31.70;16.80;;;;;;;5.71;54.91;99299.10;235926;1197;22426;-74
2021/10/25 19:10:13;;;;;;;32.60;17.10;;;;;;;5.55;55.20;99292.06;236044;1183;22473;-75
2021/10/25 19:15:17;;;;;;;31.00;16.20;;;;;;;5.41;55.97;99297.05;235949;1190;22475;-75
2021/10/25 19:20:22;;;;;;;32.80;16.60;;;;;;;5.28;56.09;99303.16;235987;1197;25140;-73
2021/10/25 19:25:25;;;;;;;35.70;16.60;;;;;;;5.14;56.57;99302.99;235843;1193;24075;-73
2021/10/25 19:30:28;;;;;;;40.40;17.40;;;;;;;5.08;57.12;99307.88;235578;1198;24177;-74
2021/10/25 19:35:31;;;;;;;37.30;18.60;;;;;;;5.09;57.16;99309.06;235945;1197;26078;-75
2021/10/25 19:40:36;;;;;;;39.70;17.50;;;;;;;5.03;57.44;99309.48;235694;1192;22423;-74
2021/10/25 19:45:39;;;;;;;39.80;18.40;;;;;;;4.99;57.48;99311.27;235857;1197;24082;-75
2021/10/25 19:50:41;;;;;;;40.20;19.50;;;;;;;4.96;58.02;99308.89;235815;1193;24116;-76
2021/10/25 19:55:45;;;;;;;42.70;19.70;;;;;;;4.96;58.38;99310.04;235818;1198;24229;-75
2021/10/25 20:00:59;;;;;;;38.50;19.50;;;;;;;4.93;58.57;99313.81;235917;1198;24225;-75
2021/10/25 20:06:02;;;;;;;41.10;18.70;;;;;;;4.89;58.53;99309.72;235826;1198;24044;-75
2021/10/25 20:11:08;;;;;;;35.20;18.60;;;;;;;4.83;58.69;99306.95;235894;1198;24053;-77
2021/10/25 20:16:24;;;;;;;39.60;18.20;;;;;;;4.77;58.93;99307.63;235955;1197;22451;-75
2021/10/25 20:21:47;;;;;;;35.10;18.30;;;;;;;4.69;59.06;99306.52;235824;1191;24075;-75
2021/10/25 20:26:52;;;;;;;39.90;19.50;;;;;;;4.62;59.19;99309.31;235818;1190;22460;-73
2021/10/25 20:31:59;;;;;;;49.30;22.10;;;;;;;4.60;59.49;99304.44;235964;1197;25017;-74
2021/10/25 20:37:02;;;;;;;49.10;20.00;;;;;;;4.57;59.65;99303.11;235846;1197;25205;-75
2021/10/25 20:42:04;;;;;;;46.50;19.50;;;;;;;4.53;59.68;99309.04;235860;1196;25012;-75
2021/10/25 20:47:07;;;;;;;40.90;19.80;;;;;;;4.52;60.19;99311.29;235879;1196;24551;-75
2021/10/25 20:52:25;;;;;;;43.80;20.30;;;;;;;4.52;60.56;99307.34;235882;1190;25177;-75
2021/10/25 20:57:49;;;;;;;43.40;18.90;;;;;;;4.46;60.52;99305.01;235830;1198;24123;-75
2021/10/25 21:02:55;;;;;;;40.70;18.20;;;;;;;4.37;60.58;99300.70;235738;1197;24158;-75
2021/10/25 21:07:58;;;;;;;43.60;21.30;;;;;;;4.27;60.68;99302.64;235884;1198;25188;-75
2021/10/25 21:13:13;;;;;;;46.10;20.90;;;;;;;4.19;61.04;99305.94;235829;1197;22580;-73
2021/10/25 21:18:17;;;;;;;50.20;21.80;;;;;;;4.08;61.10;99303.13;235754;1198;22460;-74
2021/10/25 21:23:20;;;;;;;44.70;20.70;;;;;;;3.97;61.44;99302.27;235920;1197;25315;-75
2021/10/25 21:28:23;;;;;;;47.90;21.40;;;;;;;3.86;61.52;99304.04;236128;1197;22455;-74
2021/10/25 21:33:26;;;;;;;42.70;21.10;;;;;;;3.78;61.85;99307.24;235906;1197;25197;-73
2021/10/25 21:38:29;;;;;;;48.30;22.40;;;;;;;3.75;62.27;99306.92;235771;1198;22477;-74
2021/10/25 21:43:33;;;;;;;40.50;20.90;;;;;;;3.76;62.62;99294.68;236010;1197;22457;-74
2021/10/25 21:48:35;;;;;;;42.60;20.00;;;;;;;3.75;62.77;99296.63;235788;1190;24026;-74
2021/10/25 21:53:38;;;;;;;42.30;19.00;;;;;;;3.71;62.77;99294.84;235652;1198;22571;-73
2021/10/25 21:58:42;;;;;;;38.30;17.80;;;;;;;3.64;62.91;99292.73;235713;1198;25026;-74
2021/10/25 22:03:45;;;;;;;38.90;17.90;;;;;;;3.56;63.17;99294.08;235885;1197;25045;-75
2021/10/25 22:08:48;;;;;;;45.70;19.60;;;;;;;3.51;63.26;99292.36;235815;1191;24130;-75
2021/10/25 22:14:08;;;;;;;47.80;21.40;;;;;;;3.49;63.65;99298.46;235717;1197;24106;-75
2021/10/25 22:19:12;;;;;;;51.80;23.30;;;;;;;3.47;63.98;99295.56;235789;1190;24034;-75
2021/10/25 22:24:15;;;;;;;55.80;25.10;;;;;;;3.44;64.13;99291.98;235944;1197;24084;-75
2021/10/25 22:29:17;;;;;;;52.60;24.40;;;;;;;3.35;64.17;99288.14;235709;1197;22561;-75
2021/10/25 22:34:20;;;;;;;51.40;24.20;;;;;;;3.25;64.25;99289.58;235860;1190;22457;-76
2021/10/25 22:39:26;;;;;;;58.20;23.70;;;;;;;3.14;64.39;99283.48;235837;1198;24050;-77
2021/10/25 22:44:30;;;;;;;49.80;22.10;;;;;;;3.03;64.75;99276.48;235809;1197;25308;-75
2021/10/25 22:49:33;;;;;;;53.40;24.10;;;;;;;2.96;65.12;99278.77;235766;1197;24092;-75
2021/10/25 22:54:35;;;;;;;52.30;23.20;;;;;;;2.94;65.56;99274.98;235984;1197;24061;-75
2021/10/25 22:59:38;;;;;;;56.50;24.80;;;;;;;2.89;65.75;99270.48;235833;1198;24091;-74
2021/10/25 23:04:41;;;;;;;53.20;23.70;;;;;;;2.83;65.88;99270.16;235817;1197;22421;-74
2021/10/25 23:09:43;;;;;;;50.80;23.50;;;;;;;2.76;65.95;99268.23;235847;1192;25010;-74
2021/10/25 23:14:46;;;;;;;46.70;21.30;;;;;;;2.67;66.09;99269.05;235828;1197;24050;-75
2021/10/25 23:19:48;;;;;;;53.80;23.90;;;;;;;2.63;66.41;99272.27;235856;1198;24092;-76
2021/10/25 23:24:58;;;;;;;;;;;;;;;2.61;66.77;99269.16;235899;1197;24063;-73
2021/10/25 23:30:01;;;;;;;52.00;19.60;;;;;;;2.55;66.87;99269.48;236090;1197;24165;-75
2021/10/25 23:35:05;;;;;;;58.10;24.80;;;;;;;2.46;66.80;99271.63;235801;1197;22427;-73
2021/10/25 23:40:08;;;;;;;53.00;23.30;;;;;;;2.40;66.94;99270.40;235833;1198;24038;-75
2021/10/25 23:45:11;;;;;;;48.60;20.20;;;;;;;2.38;67.08;99271.45;235795;1197;23222;-76
2021/10/25 23:50:26;;;;;;;54.70;23.50;;;;;;;2.40;67.37;99271.48;235898;1193;24040;-74
2021/10/25 23:55:42;;;;;;;51.10;21.90;;;;;;;2.39;67.46;99273.17;235936;1197;24121;-76
